»·PEaware :: N224LW KAPA-KASE

N224LW :: KAPA-KASE

FLIGHT INFORMATION

Flight Status: Arrived
Operator: Privately registered:
United States
More flights under this callsign
Pilot: Rod T. (6553)
Aircraft: CIRRUS SR-22 TURBO
(S22T)
More flights by this aircraft type
Origin: KAPA Centennial
United States
Destination: KASE Aspen-Pitkin Co/Sardy
United States
More flights between these airports :: More routes between these airports
Route: +ROCKI3 DBL
File this flight plan on PilotEdge
Remarks:
Altitude:
(Current/Filed)
16,000ft
Speed:
(Current/Filed)
180kts
Departed: 18-Apr-18 08:11 PM
Arrived: 18-Apr-18 08:56 PM
Distance/Time
Traveled:
96nm/0:45
Distance/Time
To Go:
Arrived

Flight Plot

Page will automatically refresh every two minutes.

Flight plan parsing failed; only flown route is shown


Map Options




Map Legend


Flown Route
Filed Route
Departure Airport
Arrival Airport
Navaid (VOR, NDB)
Fix

Horizontal Profiles

Position Reports

Time Latitude Longitude Heading Altitude Ground
Speed
18-Apr-18 19:42 39.581074 -104.849028 260 5884ft 0kts
18-Apr-18 19:43 39.581074 -104.849028 260 5884ft 0kts
18-Apr-18 19:44 39.581074 -104.849028 260 5884ft 0kts
18-Apr-18 19:45 39.581074 -104.849028 260 5884ft 0kts
18-Apr-18 19:46 39.581074 -104.849028 260 5884ft 0kts
18-Apr-18 19:47 39.581074 -104.849028 260 5884ft 0kts
18-Apr-18 19:48 39.581074 -104.849028 260 5884ft 0kts
18-Apr-18 19:49 39.581074 -104.849028 260 5884ft 0kts
18-Apr-18 19:50 39.581074 -104.849028 260 5884ft 0kts
18-Apr-18 19:51 39.581074 -104.849028 260 5884ft 0kts
18-Apr-18 19:52 39.581074 -104.849028 260 5884ft 0kts
18-Apr-18 19:53 39.581074 -104.849028 260 5884ft 0kts
18-Apr-18 19:54 39.581074 -104.849028 260 5884ft 0kts
18-Apr-18 19:55 39.581074 -104.849028 260 5884ft 0kts
18-Apr-18 19:56 39.581074 -104.849028 260 5884ft 0kts
18-Apr-18 19:57 39.581074 -104.849028 260 5884ft 0kts
18-Apr-18 19:58 39.581074 -104.849028 260 5884ft 0kts
18-Apr-18 19:59 39.581074 -104.849028 260 5884ft 0kts
18-Apr-18 20:00 39.581074 -104.849028 260 5884ft 0kts
18-Apr-18 20:01 39.581074 -104.849028 260 5884ft 0kts
18-Apr-18 20:02 39.581074 -104.849028 260 5884ft 0kts
18-Apr-18 20:03 39.581074 -104.849028 260 5884ft 0kts
18-Apr-18 20:04 39.581074 -104.849028 260 5884ft 0kts
18-Apr-18 20:05 39.580968 -104.849220 206 5884ft 9kts
18-Apr-18 20:06 39.584157 -104.850011 13 5884ft 14kts
18-Apr-18 20:07 39.584451 -104.850258 253 5884ft 0kts
18-Apr-18 20:08 39.584451 -104.850258 253 5884ft 0kts
18-Apr-18 20:09 39.584451 -104.850261 251 5884ft 0kts
18-Apr-18 20:10 39.575641 -104.851147 176 5966ft 95kts
18-Apr-18 20:11 39.545561 -104.849203 175 6940ft 127kts
18-Apr-18 20:12 39.509809 -104.846490 175 8001ft 144kts
18-Apr-18 20:13 39.495283 -104.888449 287 9060ft 147kts
18-Apr-18 20:14 39.510898 -104.938163 290 10205ft 150kts
18-Apr-18 20:15 39.527971 -104.987939 289 11318ft 153kts
18-Apr-18 20:16 39.542048 -105.040283 286 12406ft 155kts
18-Apr-18 20:17 39.555739 -105.093860 286 13465ft 158kts
18-Apr-18 20:18 39.569583 -105.148302 286 14494ft 160kts
18-Apr-18 20:19 39.584319 -105.202426 283 15527ft 160kts
18-Apr-18 20:20 39.599746 -105.260463 282 16004ft 178kts
18-Apr-18 20:21 39.614037 -105.319762 284 16004ft 186kts
18-Apr-18 20:22 39.628498 -105.382116 287 15992ft 179kts
18-Apr-18 20:23 39.643796 -105.443504 287 15980ft 182kts
18-Apr-18 20:24 39.659797 -105.507638 288 15982ft 189kts
18-Apr-18 20:25 39.676074 -105.572748 288 15981ft 191kts
18-Apr-18 20:26 39.693625 -105.637092 283 16002ft 189kts
18-Apr-18 20:27 39.695199 -105.693404 249 16012ft 196kts
18-Apr-18 20:28 39.682368 -105.755539 249 16009ft 204kts
18-Apr-18 20:29 39.667508 -105.827385 249 16009ft 207kts
18-Apr-18 20:30 39.652549 -105.899589 249 16009ft 208kts
18-Apr-18 20:31 39.637527 -105.971881 249 16009ft 208kts
18-Apr-18 20:32 39.621853 -106.043055 251 15931ft 203kts
18-Apr-18 20:33 39.607324 -106.111421 252 15927ft 194kts
18-Apr-18 20:34 39.593266 -106.178460 252 15927ft 192kts
18-Apr-18 20:35 39.579111 -106.245717 252 15927ft 191kts
18-Apr-18 20:36 39.565163 -106.311808 252 15927ft 191kts
18-Apr-18 20:37 39.551305 -106.377240 252 15927ft 191kts
18-Apr-18 20:38 39.536953 -106.444783 252 15927ft 191kts
18-Apr-18 20:39 39.522932 -106.510590 252 15927ft 191kts
18-Apr-18 20:40 39.508689 -106.577226 252 15927ft 191kts
18-Apr-18 20:41 39.494375 -106.643196 253 15901ft 194kts
18-Apr-18 20:42 39.479376 -106.711503 253 15900ft 199kts
18-Apr-18 20:43 39.473655 -106.782118 277 15671ft 210kts
18-Apr-18 20:44 39.481793 -106.860517 277 14987ft 223kts
18-Apr-18 20:45 39.490083 -106.939889 277 14198ft 223kts
18-Apr-18 20:46 39.490700 -107.014541 221 13351ft 202kts
18-Apr-18 20:47 39.451076 -106.990012 125 13296ft 166kts
18-Apr-18 20:48 39.415873 -106.961338 157 13295ft 151kts
18-Apr-18 20:49 39.380542 -106.944170 159 12811ft 123kts
18-Apr-18 20:50 39.349272 -106.928870 161 12218ft 117kts
18-Apr-18 20:51 39.319256 -106.914490 161 11640ft 117kts
18-Apr-18 20:52 39.286006 -106.898215 162 10376ft 128kts
18-Apr-18 20:53 39.253958 -106.883430 161 8510ft 105kts
18-Apr-18 20:54 39.230389 -106.872320 161 7821ft 70kts
18-Apr-18 20:55 39.223292 -106.867330 159 7820ft 12kts
18-Apr-18 20:56 39.222753 -106.866826 274 7820ft 0kts

Navigation Log

Ident Type
Flight plan parsing failed, navigation log unavailable